createdAt,value
2017-10-04T00:02:25.720Z,66.70
2017-10-04T00:04:53.227Z,66.90
2017-10-04T00:07:21.547Z,66.60
2017-10-04T00:09:49.049Z,66.60
2017-10-04T00:12:17.409Z,66.90
2017-10-04T00:14:44.928Z,66.90
2017-10-04T00:17:12.488Z,67.00
2017-10-04T00:19:40.034Z,66.90
2017-10-04T00:22:08.304Z,66.70
2017-10-04T00:24:36.619Z,66.60
2017-10-04T00:27:04.125Z,66.50
2017-10-04T00:29:31.617Z,66.40
2017-10-04T00:31:59.139Z,66.40
2017-10-04T00:34:27.032Z,66.20
2017-10-04T00:36:55.335Z,66.60
2017-10-04T00:39:24.180Z,66.60
2017-10-04T00:41:52.447Z,66.60
2017-10-04T00:44:19.978Z,66.50
2017-10-04T00:46:47.480Z,66.30
2017-10-04T00:49:15.773Z,66.10
2017-10-04T00:51:43.309Z,66.10
2017-10-04T00:54:11.633Z,66.10
2017-10-04T00:56:39.129Z,66.10
2017-10-04T00:59:06.628Z,66.10
2017-10-04T01:01:34.184Z,66.10
2017-10-04T01:04:02.459Z,65.90
2017-10-04T01:06:30.873Z,65.70
2017-10-04T01:08:58.375Z,65.70
2017-10-04T01:11:26.827Z,65.80
2017-10-04T01:13:54.421Z,65.70
2017-10-04T01:16:22.728Z,65.40
2017-10-04T01:18:50.263Z,65.40
2017-10-04T01:21:18.584Z,65.30
2017-10-04T01:23:46.063Z,65.30
2017-10-04T01:26:13.576Z,65.20
2017-10-04T01:28:41.122Z,65.20
2017-10-04T01:31:09.417Z,65.50
2017-10-04T01:33:36.940Z,65.50
2017-10-04T01:36:04.455Z,65.70
2017-10-04T01:38:31.960Z,65.80
2017-10-04T01:40:59.475Z,66.50
2017-10-04T01:43:26.994Z,65.70
2017-10-04T01:45:54.543Z,65.90
2017-10-04T01:48:22.806Z,65.60
2017-10-04T01:50:50.357Z,65.60
2017-10-04T01:53:17.863Z,65.40
2017-10-04T01:55:45.391Z,65.30
2017-10-04T01:58:12.951Z,65.00
2017-10-04T02:00:40.545Z,64.90
2017-10-04T02:03:08.073Z,65.40
2017-10-04T02:05:36.367Z,64.60
2017-10-04T02:08:03.917Z,64.60
2017-10-04T02:10:32.189Z,64.60
2017-10-04T02:13:00.490Z,64.50
2017-10-04T02:15:28.058Z,64.50
2017-10-04T02:17:55.550Z,64.30
2017-10-04T02:20:24.036Z,64.30
2017-10-04T02:22:51.539Z,64.30
2017-10-04T02:25:19.801Z,64.30
2017-10-04T02:27:48.128Z,64.00
2017-10-04T02:30:15.694Z,64.00
2017-10-04T02:32:43.242Z,64.20
2017-10-04T02:35:10.729Z,64.60
2017-10-04T02:37:38.225Z,64.70
2017-10-04T02:40:06.574Z,64.60
2017-10-04T02:42:34.114Z,64.60
2017-10-04T02:45:01.686Z,64.80
2017-10-04T02:47:29.233Z,64.80
2017-10-04T02:49:56.777Z,64.80
2017-10-04T02:52:24.317Z,65.00
2017-10-04T02:54:51.861Z,65.00
2017-10-04T02:57:20.184Z,65.00
2017-10-04T02:59:47.690Z,65.00
2017-10-04T03:02:15.955Z,65.20
2017-10-04T03:04:43.474Z,65.10
2017-10-04T03:07:10.984Z,65.10
2017-10-04T03:09:39.308Z,65.30
2017-10-04T03:12:06.825Z,65.30
2017-10-04T03:14:35.071Z,65.40
2017-10-04T03:17:02.626Z,65.40
2017-10-04T03:19:30.151Z,65.50
2017-10-04T03:21:57.678Z,65.40
2017-10-04T03:24:25.989Z,65.90
2017-10-04T03:26:53.555Z,65.90
2017-10-04T03:29:21.063Z,66.00
2017-10-04T03:31:49.360Z,66.10
2017-10-04T03:34:16.883Z,66.00
2017-10-04T03:36:44.394Z,65.80
2017-10-04T03:39:11.915Z,66.10
2017-10-04T03:41:40.230Z,65.80
2017-10-04T03:44:07.821Z,65.80
2017-10-04T03:46:35.324Z,66.10
2017-10-04T03:49:03.610Z,65.80
2017-10-04T03:51:31.140Z,65.80
2017-10-04T03:53:59.391Z,66.00
2017-10-04T03:56:26.977Z,66.10
2017-10-04T03:58:55.262Z,65.90
2017-10-04T04:01:26.080Z,66.20
2017-10-04T04:03:53.590Z,66.10
2017-10-04T04:06:21.488Z,65.90
2017-10-04T04:08:49.067Z,66.10
2017-10-04T04:11:16.580Z,66.20
2017-10-04T04:13:44.141Z,66.10
2017-10-04T04:16:11.665Z,66.30
2017-10-04T04:18:39.988Z,66.40
2017-10-04T04:21:07.497Z,66.40
2017-10-04T04:23:35.758Z,66.00
2017-10-04T04:26:04.087Z,65.90
2017-10-04T04:28:31.611Z,65.90
2017-10-04T04:30:59.937Z,65.80
2017-10-04T04:33:27.560Z,65.70
2017-10-04T04:35:55.849Z,65.70
2017-10-04T04:38:35.203Z,65.70
2017-10-04T04:41:02.737Z,65.40
2017-10-04T04:43:30.286Z,65.40
2017-10-04T04:45:58.556Z,65.10
2017-10-04T04:48:26.864Z,65.00
2017-10-04T04:50:54.412Z,64.90
2017-10-04T04:53:23.433Z,64.90
2017-10-04T04:55:50.925Z,64.90
2017-10-04T04:58:18.474Z,65.00
2017-10-04T05:00:46.032Z,64.80
2017-10-04T05:03:13.537Z,64.80
2017-10-04T05:05:41.851Z,64.80
2017-10-04T05:08:09.368Z,64.80
2017-10-04T05:10:37.658Z,64.70
2017-10-04T05:13:05.391Z,64.70
2017-10-04T05:15:33.691Z,64.60
2017-10-04T05:18:01.952Z,64.40
2017-10-04T05:20:30.286Z,64.20
2017-10-04T05:22:57.794Z,64.10
2017-10-04T05:25:26.950Z,64.20
2017-10-04T05:27:54.496Z,64.20
2017-10-04T05:30:22.120Z,64.10
2017-10-04T05:32:50.387Z,63.90
2017-10-04T05:35:18.681Z,63.70
2017-10-04T05:37:46.239Z,63.70
2017-10-04T05:40:13.827Z,63.50
2017-10-04T05:42:41.342Z,63.70
2017-10-04T05:45:09.608Z,63.30
2017-10-04T05:47:37.930Z,62.90
2017-10-04T05:50:05.663Z,62.90
2017-10-04T05:52:33.920Z,62.70
2017-10-04T05:55:02.262Z,62.60
2017-10-04T05:57:29.818Z,62.60
2017-10-04T05:59:57.315Z,62.10
2017-10-04T06:02:25.691Z,62.50
2017-10-04T06:04:53.210Z,62.40
2017-10-04T06:07:20.804Z,62.10
2017-10-04T06:09:48.354Z,62.90
2017-10-04T06:12:15.863Z,61.80
2017-10-04T06:14:43.404Z,61.50
2017-10-04T06:17:11.730Z,61.80
2017-10-04T06:19:39.247Z,61.80
2017-10-04T06:22:07.527Z,61.60
2017-10-04T06:24:35.849Z,61.50
2017-10-04T06:27:03.334Z,61.50
2017-10-04T06:29:30.919Z,61.30
2017-10-04T06:31:59.218Z,61.50
2017-10-04T06:34:26.769Z,61.40
2017-10-04T06:36:54.262Z,61.90
2017-10-04T06:39:22.368Z,61.10
2017-10-04T06:41:49.944Z,60.70
2017-10-04T06:44:18.223Z,60.70
2017-10-04T06:46:46.524Z,60.50
2017-10-04T06:49:14.050Z,60.50
2017-10-04T06:51:42.393Z,59.60
2017-10-04T06:54:09.945Z,59.60
2017-10-04T06:56:37.478Z,59.60
2017-10-04T06:59:04.983Z,59.50
2017-10-04T07:01:33.285Z,59.40
2017-10-04T07:04:01.563Z,59.00
2017-10-04T07:06:30.492Z,59.00
2017-10-04T07:08:58.693Z,59.00
2017-10-04T07:11:27.124Z,59.00
2017-10-04T07:13:54.629Z,59.10
2017-10-04T07:16:22.138Z,59.10
2017-10-04T07:18:49.777Z,59.00
2017-10-04T07:21:17.287Z,58.90
2017-10-04T07:23:44.822Z,59.00
2017-10-04T07:26:12.401Z,59.10
2017-10-04T07:28:39.912Z,58.60
2017-10-04T07:31:08.254Z,58.70
2017-10-04T07:33:35.829Z,58.70
2017-10-04T07:36:03.319Z,58.70
2017-10-04T07:38:31.606Z,57.80
2017-10-04T07:40:59.140Z,57.80
2017-10-04T07:43:27.476Z,58.00
2017-10-04T07:45:54.991Z,58.60
2017-10-04T07:48:23.255Z,57.80
2017-10-04T07:50:50.805Z,57.70
2017-10-04T07:53:19.170Z,57.30
2017-10-04T07:55:48.224Z,57.30
2017-10-04T07:58:15.755Z,57.50
2017-10-04T08:00:44.561Z,56.90
2017-10-04T08:03:12.072Z,56.80
2017-10-04T08:05:39.643Z,56.70
2017-10-04T08:08:08.040Z,56.50
2017-10-04T08:10:36.327Z,55.70
2017-10-04T08:13:04.638Z,55.90
2017-10-04T08:15:32.205Z,55.80
2017-10-04T08:18:00.483Z,54.90
2017-10-04T08:20:28.058Z,55.00
2017-10-04T08:22:55.615Z,55.10
2017-10-04T08:25:25.605Z,55.00
2017-10-04T08:27:53.160Z,54.70
2017-10-04T08:30:20.869Z,54.60
2017-10-04T08:32:48.380Z,54.70
2017-10-04T08:35:15.892Z,53.40
2017-10-04T08:37:43.430Z,53.10
2017-10-04T08:40:11.244Z,52.20
2017-10-04T08:42:40.274Z,52.10
2017-10-04T08:45:07.849Z,52.10
2017-10-04T08:47:47.332Z,52.40
2017-10-04T08:50:15.163Z,52.80
2017-10-04T08:52:45.127Z,52.70
2017-10-04T08:55:14.786Z,52.40
2017-10-04T08:57:42.423Z,51.80
2017-10-04T09:00:11.537Z,52.10
2017-10-04T09:02:41.954Z,52.10
2017-10-04T09:05:23.141Z,52.10
2017-10-04T09:07:53.689Z,52.10
2017-10-04T09:10:21.382Z,52.00
2017-10-04T09:12:48.965Z,51.40
2017-10-04T09:15:16.538Z,51.80
2017-10-04T09:17:44.079Z,51.50
2017-10-04T09:20:11.717Z,51.30
2017-10-04T09:22:40.017Z,50.60
2017-10-04T09:25:07.607Z,50.60
2017-10-04T09:27:35.974Z,50.80
2017-10-04T09:30:04.665Z,50.80
2017-10-04T09:32:32.173Z,50.50
2017-10-04T09:35:00.586Z,49.70
2017-10-04T09:37:29.148Z,49.60
2017-10-04T09:39:58.112Z,49.10
2017-10-04T09:42:25.668Z,49.10
2017-10-04T09:44:53.489Z,49.30
2017-10-04T09:47:21.142Z,49.10
2017-10-04T09:49:48.745Z,49.00
2017-10-04T09:52:16.367Z,48.80
2017-10-04T09:54:43.925Z,48.20
2017-10-04T09:57:11.459Z,47.50
2017-10-04T09:59:39.078Z,46.40
2017-10-04T10:02:06.702Z,46.70
2017-10-04T10:04:34.492Z,46.30
2017-10-04T10:07:02.274Z,46.60
2017-10-04T10:09:29.835Z,46.90
2017-10-04T10:11:57.547Z,45.80
2017-10-04T10:14:25.140Z,45.30
2017-10-04T10:16:53.885Z,44.60
2017-10-04T10:19:20.271Z,44.80
2017-10-04T10:21:47.791Z,44.80
2017-10-04T10:24:15.360Z,45.00
2017-10-04T10:26:43.572Z,45.20
2017-10-04T10:29:11.144Z,45.00
2017-10-04T10:31:39.170Z,44.60
2017-10-04T10:34:06.705Z,44.90
2017-10-04T10:36:35.014Z,44.00
2017-10-04T10:39:02.552Z,44.00
2017-10-04T10:41:30.895Z,43.40
2017-10-04T10:43:58.453Z,43.40
2017-10-04T10:46:26.017Z,43.20
2017-10-04T10:48:53.531Z,43.20
2017-10-04T10:51:21.088Z,43.60
2017-10-04T10:53:48.663Z,43.40
2017-10-04T10:56:16.229Z,43.10
2017-10-04T10:58:43.724Z,42.00
2017-10-04T11:01:11.278Z,41.90
2017-10-04T11:03:38.871Z,41.60
2017-10-04T11:06:06.391Z,41.70
2017-10-04T11:08:33.971Z,41.70
2017-10-04T11:11:02.330Z,41.10
2017-10-04T11:13:29.889Z,41.10
2017-10-04T11:15:58.218Z,40.40
2017-10-04T11:18:25.846Z,40.40
2017-10-04T11:20:54.144Z,40.80
2017-10-04T11:23:22.991Z,40.70
2017-10-04T11:25:50.592Z,41.20
2017-10-04T11:28:18.132Z,40.80
2017-10-04T11:30:45.698Z,40.80
2017-10-04T11:33:14.999Z,40.70
2017-10-04T11:35:43.288Z,41.00
2017-10-04T11:38:11.560Z,41.10
2017-10-04T11:40:39.127Z,41.10
2017-10-04T11:43:06.628Z,41.20
2017-10-04T11:45:34.167Z,40.60
2017-10-04T11:48:01.875Z,40.60
2017-10-04T11:50:29.443Z,41.30
2017-10-04T11:52:57.048Z,40.60
2017-10-04T11:55:25.636Z,41.00
2017-10-04T11:57:53.226Z,40.70
2017-10-04T12:00:20.798Z,41.30
2017-10-04T12:02:48.311Z,42.10
2017-10-04T12:05:16.014Z,41.80
2017-10-04T12:07:43.623Z,41.90
2017-10-04T12:10:11.163Z,41.10
2017-10-04T12:12:39.528Z,41.60
2017-10-04T12:15:07.915Z,41.40
2017-10-04T12:17:36.250Z,41.10
2017-10-04T12:47:53.221Z,42.10
2017-10-04T12:50:25.243Z,42.20
2017-10-04T12:54:29.202Z,42.40
2017-10-04T12:56:57.724Z,42.20
2017-10-04T12:59:25.683Z,42.70
2017-10-04T13:01:53.230Z,42.90
2017-10-04T13:04:20.767Z,43.10
2017-10-04T13:06:48.383Z,43.00
2017-10-04T13:09:15.953Z,43.10
2017-10-04T13:11:44.277Z,43.40
2017-10-04T13:14:11.848Z,43.40
2017-10-04T13:16:39.387Z,43.50
2017-10-04T13:19:06.898Z,43.50
2017-10-04T13:28:27.355Z,43.90
2017-10-04T13:30:56.031Z,44.30
2017-10-04T13:33:25.169Z,44.50
2017-10-04T13:35:52.693Z,44.50
2017-10-04T13:38:21.189Z,44.60
2017-10-04T13:40:49.334Z,44.60
2017-10-04T13:43:16.935Z,44.40
2017-10-04T13:45:44.599Z,44.50
2017-10-04T13:48:14.842Z,44.30
2017-10-04T13:50:43.253Z,44.40
2017-10-04T13:53:11.922Z,44.10
2017-10-04T14:08:09.464Z,44.40
2017-10-04T14:19:45.319Z,44.00
2017-10-04T14:22:14.489Z,44.00
2017-10-04T14:24:50.299Z,44.30
2017-10-04T14:27:17.973Z,44.30
2017-10-04T14:30:08.863Z,44.30
2017-10-04T14:38:32.512Z,44.70
2017-10-04T14:41:00.054Z,44.70
2017-10-04T14:43:27.632Z,45.10
2017-10-04T14:45:56.081Z,45.50
2017-10-04T14:48:23.726Z,45.50
2017-10-04T14:50:52.129Z,45.60
2017-10-04T14:53:19.643Z,45.60
2017-10-04T14:55:47.187Z,45.70
2017-10-04T14:58:14.788Z,45.20
2017-10-04T15:00:42.354Z,45.20
2017-10-04T15:03:10.644Z,45.60
2017-10-04T15:05:38.200Z,45.50
2017-10-04T15:08:05.773Z,45.80
2017-10-04T15:10:33.316Z,45.70
2017-10-04T15:13:01.652Z,45.80
2017-10-04T15:15:29.225Z,45.60
2017-10-04T15:17:56.754Z,45.90
2017-10-04T15:20:24.288Z,46.00
2017-10-04T15:22:51.861Z,46.20
2017-10-04T15:25:19.472Z,46.40
2017-10-04T15:27:47.051Z,46.50
2017-10-04T15:30:15.423Z,46.80
2017-10-04T15:32:44.473Z,47.00
2017-10-04T15:35:12.099Z,47.00
2017-10-04T15:37:39.813Z,46.90
2017-10-04T15:40:07.384Z,47.20
2017-10-04T15:42:34.931Z,47.30
2017-10-04T15:45:02.573Z,47.40
2017-10-04T15:47:30.120Z,47.60
2017-10-04T15:49:57.766Z,47.50
2017-10-04T15:52:25.331Z,47.60
2017-10-04T15:54:52.868Z,47.80
2017-10-04T15:57:21.188Z,48.00
2017-10-04T15:59:48.769Z,47.90
2017-10-04T16:02:16.407Z,48.10
2017-10-04T16:04:44.142Z,48.20
2017-10-04T16:07:12.554Z,48.40
2017-10-04T16:09:40.121Z,48.40
2017-10-04T16:12:07.667Z,48.60
2017-10-04T16:14:35.215Z,48.70
2017-10-04T16:17:02.763Z,48.90
2017-10-04T16:19:30.355Z,49.30
2017-10-04T16:21:57.873Z,49.40
2017-10-04T16:24:26.369Z,49.60
2017-10-04T16:26:53.953Z,49.60
2017-10-04T16:29:21.491Z,49.90
2017-10-04T16:31:49.059Z,49.90
2017-10-04T16:34:16.600Z,50.10
2017-10-04T16:36:45.026Z,50.10
2017-10-04T16:39:12.726Z,50.00
2017-10-04T16:41:41.091Z,50.50
2017-10-04T16:44:08.809Z,50.50
2017-10-04T16:46:36.371Z,50.50
2017-10-04T16:49:03.954Z,50.60
2017-10-04T16:51:31.530Z,50.80
2017-10-04T16:53:59.106Z,50.80
2017-10-04T16:56:26.633Z,51.00
2017-10-04T16:58:54.257Z,51.20
2017-10-04T17:01:21.970Z,51.20
2017-10-04T17:03:49.479Z,51.30
2017-10-04T17:06:17.242Z,51.70
2017-10-04T17:08:44.894Z,51.80
2017-10-04T17:11:13.264Z,52.00
2017-10-04T17:13:40.782Z,52.00
2017-10-04T17:16:08.362Z,52.00
2017-10-04T17:18:35.921Z,52.20
2017-10-04T17:21:03.454Z,52.30
2017-10-04T17:23:30.974Z,52.50
2017-10-04T17:25:58.547Z,52.70
2017-10-04T17:28:26.165Z,53.00
2017-10-04T17:30:53.785Z,53.20
2017-10-04T17:33:21.307Z,53.30
2017-10-04T17:35:49.599Z,53.70
2017-10-04T17:38:17.159Z,53.70
2017-10-04T17:40:44.727Z,53.90
2017-10-04T17:43:13.146Z,54.00
2017-10-04T17:45:40.854Z,54.20
2017-10-04T17:48:08.384Z,54.40
2017-10-04T17:50:35.958Z,54.70
2017-10-04T17:53:04.337Z,54.80
2017-10-04T17:55:31.842Z,54.80
2017-10-04T17:58:00.097Z,55.00
2017-10-04T18:00:28.202Z,55.00
2017-10-04T18:02:55.752Z,55.00
2017-10-04T18:05:23.454Z,55.20
2017-10-04T18:07:51.449Z,55.40
2017-10-04T18:19:04.093Z,55.40
2017-10-04T18:21:31.687Z,56.30
2017-10-04T18:24:01.318Z,56.60
2017-10-04T18:26:28.982Z,56.50
2017-10-04T18:28:56.623Z,56.50
2017-10-04T18:31:24.215Z,56.40
2017-10-04T18:33:51.746Z,56.50
2017-10-04T18:36:19.399Z,56.30
2017-10-04T18:38:46.994Z,56.30
2017-10-04T18:41:14.535Z,56.30
2017-10-04T18:43:42.999Z,56.80
2017-10-04T18:46:10.535Z,56.90
2017-10-04T18:48:41.577Z,57.10
2017-10-04T18:51:09.893Z,57.30
2017-10-04T18:53:37.483Z,57.20
2017-10-04T18:56:05.097Z,57.10
2017-10-04T18:58:36.901Z,57.00
2017-10-04T19:01:05.068Z,57.10
2017-10-04T19:03:33.583Z,57.30
2017-10-04T19:06:03.993Z,57.40
2017-10-04T19:08:31.692Z,57.50
2017-10-04T19:10:59.299Z,57.40
2017-10-04T19:13:26.879Z,58.80
2017-10-04T19:15:54.567Z,58.20
2017-10-04T19:18:22.189Z,58.60
2017-10-04T19:20:50.555Z,58.60
2017-10-04T19:23:18.302Z,58.80
2017-10-04T19:25:45.832Z,59.20
2017-10-04T19:28:18.346Z,59.50
2017-10-04T19:30:46.937Z,59.70
2017-10-04T19:33:14.489Z,59.90
2017-10-04T19:35:42.208Z,60.30
2017-10-04T19:38:09.796Z,60.60
2017-10-04T19:40:37.435Z,61.00
2017-10-04T19:43:05.691Z,61.30
2017-10-04T19:45:33.385Z,61.20
2017-10-04T19:48:07.837Z,61.20
2017-10-04T19:50:35.412Z,61.70
2017-10-04T19:53:03.019Z,61.50
2017-10-04T19:55:31.356Z,61.60
2017-10-04T19:57:58.946Z,61.60
2017-10-04T20:00:26.588Z,61.90
2017-10-04T20:02:54.168Z,62.10
2017-10-04T20:05:21.870Z,62.30
2017-10-04T20:07:49.545Z,62.20
2017-10-04T20:10:17.117Z,61.90
2017-10-04T20:12:44.754Z,62.20
2017-10-04T20:15:12.376Z,62.40
2017-10-04T20:17:39.897Z,62.30
2017-10-04T20:20:07.491Z,62.30
2017-10-04T20:22:35.110Z,62.30
2017-10-04T20:25:02.661Z,62.20
2017-10-04T20:27:30.338Z,62.20
2017-10-04T20:29:58.107Z,62.10
2017-10-04T20:32:27.473Z,62.00
2017-10-04T20:34:55.036Z,61.80
2017-10-04T20:37:22.621Z,61.60
2017-10-04T20:39:50.186Z,61.30
2017-10-04T20:42:17.724Z,61.30
2017-10-04T20:44:45.311Z,61.50
2017-10-04T20:47:12.957Z,61.60
2017-10-04T20:49:40.508Z,61.80
2017-10-04T20:52:09.072Z,61.90
2017-10-04T20:54:36.580Z,61.90
2017-10-04T20:57:04.156Z,61.80
2017-10-04T20:59:31.802Z,61.80
2017-10-04T21:01:59.350Z,61.80
2017-10-04T21:04:26.989Z,61.50
2017-10-04T21:06:54.550Z,61.30
2017-10-04T21:09:22.066Z,61.10
2017-10-04T21:11:49.635Z,60.80
2017-10-04T21:14:17.987Z,60.40
2017-10-04T21:16:45.508Z,60.40
2017-10-04T21:19:13.180Z,60.50
2017-10-04T21:21:40.721Z,60.20
2017-10-04T21:24:09.208Z,60.00
2017-10-04T21:26:36.781Z,60.10
2017-10-04T21:29:04.464Z,60.00
2017-10-04T21:31:32.069Z,60.00
2017-10-04T21:34:00.391Z,59.70
2017-10-04T21:36:27.946Z,59.70
2017-10-04T21:38:55.562Z,59.70
2017-10-04T21:41:23.230Z,59.70
2017-10-04T21:43:51.569Z,60.00
2017-10-04T21:46:19.114Z,60.00
2017-10-04T21:48:46.706Z,59.90
2017-10-04T21:51:14.265Z,59.90
2017-10-04T21:53:41.857Z,60.00
2017-10-04T21:56:09.395Z,60.00
2017-10-04T21:58:36.996Z,59.80
2017-10-04T22:01:04.580Z,60.10
2017-10-04T22:03:32.149Z,60.00
2017-10-04T22:05:59.756Z,60.00
2017-10-04T22:08:27.352Z,60.00
2017-10-04T22:10:54.895Z,59.90
2017-10-04T22:13:22.497Z,60.10
2017-10-04T22:15:50.030Z,59.90
2017-10-04T22:18:17.549Z,59.90
2017-10-04T22:20:45.879Z,60.30
2017-10-04T22:23:13.580Z,60.30
2017-10-04T22:25:41.222Z,60.00
2017-10-04T22:28:08.800Z,59.90
2017-10-04T22:30:37.118Z,60.00
2017-10-04T22:33:04.664Z,60.00
2017-10-04T22:35:32.233Z,60.00
2017-10-04T22:37:59.782Z,60.00
2017-10-04T22:40:27.322Z,59.70
2017-10-04T22:42:55.647Z,59.80
2017-10-04T22:45:23.283Z,59.70
2017-10-04T22:47:50.851Z,59.50
2017-10-04T22:50:18.449Z,59.50
2017-10-04T22:52:46.056Z,59.30
2017-10-04T22:55:14.340Z,59.10
2017-10-04T22:57:41.882Z,59.10
2017-10-04T23:00:10.202Z,59.00
2017-10-04T23:02:37.696Z,59.00
2017-10-04T23:05:05.454Z,59.00
2017-10-04T23:07:32.981Z,58.70
2017-10-04T23:10:00.508Z,58.70
2017-10-04T23:12:28.936Z,58.70
2017-10-04T23:14:56.476Z,58.70
2017-10-04T23:17:24.028Z,58.50
2017-10-04T23:19:51.581Z,58.70
2017-10-04T23:22:19.118Z,58.50
2017-10-04T23:24:46.614Z,58.60
2017-10-04T23:27:14.170Z,58.50
2017-10-04T23:29:41.705Z,58.50
2017-10-04T23:32:09.218Z,58.40
2017-10-04T23:34:36.760Z,58.50
2017-10-04T23:37:04.341Z,58.50
2017-10-04T23:39:31.840Z,58.70
2017-10-04T23:41:59.373Z,59.00
2017-10-04T23:44:26.944Z,58.90
2017-10-04T23:46:55.293Z,59.00
2017-10-04T23:49:22.870Z,59.00
2017-10-04T23:51:51.166Z,59.00
2017-10-04T23:54:19.495Z,59.00
2017-10-04T23:56:47.037Z,59.00
2017-10-04T23:59:14.603Z,59.00
